createdAt,value
2023-01-27T00:02:00.144Z,100.00
2023-01-27T00:04:30.016Z,100.00
2023-01-27T00:06:58.474Z,100.00
2023-01-27T00:09:26.812Z,100.00
2023-01-27T00:12:14.033Z,100.00
2023-01-27T00:14:42.418Z,100.00
2023-01-27T00:17:10.792Z,100.00
2023-01-27T00:19:39.141Z,100.00
2023-01-27T00:22:24.977Z,100.00
2023-01-27T00:24:53.437Z,100.00
2023-01-27T00:27:24.092Z,100.00
2023-01-27T00:29:54.001Z,100.00
2023-01-27T00:32:39.507Z,100.00
2023-01-27T00:35:08.676Z,100.00
2023-01-27T00:37:37.073Z,100.00
2023-01-27T00:40:06.305Z,100.00
2023-01-27T00:42:36.479Z,100.00
2023-01-27T00:45:37.518Z,100.00
2023-01-27T00:48:06.665Z,100.00
2023-01-27T00:50:35.013Z,100.00
2023-01-27T00:53:03.661Z,100.00
2023-01-27T00:55:32.072Z,100.00
2023-01-27T00:58:01.818Z,100.00
2023-01-27T01:00:30.508Z,100.00
2023-01-27T01:02:58.807Z,100.00
2023-01-27T01:05:27.152Z,100.00
2023-01-27T01:07:55.516Z,100.00
2023-01-27T01:10:24.530Z,100.00
2023-01-27T01:12:52.906Z,100.00
2023-01-27T01:15:22.825Z,100.00
2023-01-27T01:17:52.561Z,100.00
2023-01-27T01:20:20.947Z,100.00
2023-01-27T01:22:49.588Z,100.00
2023-01-27T01:25:18.263Z,100.00
2023-01-27T01:27:46.821Z,100.00
2023-01-27T01:30:15.842Z,100.00
2023-01-27T01:32:45.669Z,100.00
2023-01-27T01:35:15.382Z,100.00
2023-01-27T01:37:43.761Z,100.00
2023-01-27T01:40:14.325Z,100.00
2023-01-27T01:42:59.184Z,100.00
2023-01-27T01:45:50.638Z,100.00
2023-01-27T01:48:30.742Z,100.00
2023-01-27T01:51:08.507Z,100.00
2023-01-27T01:53:44.845Z,100.00
2023-01-27T01:56:22.796Z,100.00
2023-01-27T01:58:52.396Z,100.00
2023-01-27T02:01:20.864Z,100.00
2023-01-27T02:04:00.290Z,100.00
2023-01-27T02:06:30.021Z,100.00
2023-01-27T02:08:58.814Z,100.00
2023-01-27T02:11:27.453Z,100.00
2023-01-27T02:13:55.801Z,100.00
2023-01-27T02:16:25.163Z,100.00
2023-01-27T02:18:54.996Z,100.00
2023-01-27T02:21:23.473Z,100.00
2023-01-27T02:24:02.222Z,100.00
2023-01-27T02:26:37.200Z,100.00
2023-01-27T02:29:09.159Z,100.00
2023-01-27T02:31:37.682Z,100.00
2023-01-27T02:34:12.048Z,100.00
2023-01-27T02:36:47.872Z,100.00
2023-01-27T02:39:19.656Z,100.00
2023-01-27T02:41:53.056Z,100.00
2023-01-27T02:44:21.884Z,100.00
2023-01-27T02:46:50.273Z,100.00
2023-01-27T02:49:19.458Z,100.00
2023-01-27T02:51:47.917Z,100.00
2023-01-27T02:54:18.142Z,100.00
2023-01-27T02:56:46.619Z,100.00
2023-01-27T02:59:16.847Z,100.00
2023-01-27T03:01:45.216Z,100.00
2023-01-27T03:04:15.871Z,100.00
2023-01-27T03:06:44.447Z,100.00
2023-01-27T03:09:12.829Z,100.00
2023-01-27T03:11:58.811Z,100.00
2023-01-27T03:14:46.948Z,100.00
2023-01-27T03:17:33.074Z,100.00
2023-01-27T03:20:01.395Z,100.00
2023-01-27T03:22:29.954Z,100.00
2023-01-27T03:24:58.294Z,100.00
2023-01-27T03:27:26.763Z,100.00
2023-01-27T03:29:56.450Z,100.00
2023-01-27T03:32:25.774Z,100.00
2023-01-27T03:34:54.440Z,100.00
2023-01-27T03:37:40.477Z,100.00
2023-01-27T03:40:29.218Z,100.00
2023-01-27T03:43:15.610Z,100.00
2023-01-27T03:46:09.769Z,100.00
2023-01-27T03:48:38.991Z,100.00
2023-01-27T03:51:11.307Z,100.00
2023-01-27T03:53:40.001Z,100.00
2023-01-27T03:56:09.191Z,100.00
2023-01-27T03:58:39.185Z,100.00
2023-01-27T04:01:15.488Z,100.00
2023-01-27T04:04:02.528Z,100.00
2023-01-27T04:06:51.231Z,100.00
2023-01-27T04:09:23.593Z,100.00
2023-01-27T04:12:02.108Z,100.00
2023-01-27T04:14:34.070Z,100.00
2023-01-27T04:17:06.469Z,100.00
2023-01-27T04:19:35.331Z,100.00
2023-01-27T04:22:05.124Z,100.00
2023-01-27T04:24:34.634Z,100.00
2023-01-27T04:27:06.861Z,100.00
2023-01-27T04:29:38.040Z,100.00
2023-01-27T04:32:10.492Z,100.00
2023-01-27T04:34:40.099Z,100.00
2023-01-27T04:37:10.528Z,100.00
2023-01-27T04:39:39.144Z,100.00
2023-01-27T04:42:07.556Z,100.00
2023-01-27T04:44:36.130Z,100.00
2023-01-27T04:47:04.602Z,100.00
2023-01-27T04:49:34.278Z,100.00
2023-01-27T04:52:02.583Z,100.00
2023-01-27T04:54:31.182Z,100.00
2023-01-27T04:57:03.995Z,100.00
2023-01-27T04:59:32.673Z,100.00
2023-01-27T05:02:01.434Z,100.00
2023-01-27T05:04:35.510Z,100.00
2023-01-27T05:07:06.150Z,100.00
2023-01-27T05:09:39.219Z,100.00
2023-01-27T05:12:22.962Z,100.00
2023-01-27T05:14:57.088Z,100.00
2023-01-27T05:17:41.859Z,100.00
2023-01-27T05:20:15.397Z,100.00
2023-01-27T05:22:47.659Z,100.00
2023-01-27T05:25:19.042Z,100.00
2023-01-27T05:27:52.135Z,100.00
2023-01-27T05:30:27.589Z,100.00
2023-01-27T05:32:56.752Z,100.00
2023-01-27T05:35:28.723Z,100.00
2023-01-27T05:38:05.080Z,100.00
2023-01-27T05:40:37.308Z,100.00
2023-01-27T05:43:06.717Z,100.00
2023-01-27T05:45:36.116Z,100.00
2023-01-27T05:48:07.807Z,100.00
2023-01-27T05:50:38.948Z,100.00
2023-01-27T05:53:13.518Z,100.00
2023-01-27T05:55:45.175Z,100.00
2023-01-27T05:58:13.876Z,100.00
2023-01-27T06:00:42.807Z,100.00
2023-01-27T06:03:12.353Z,100.00
2023-01-27T06:05:56.189Z,100.00
2023-01-27T06:08:26.845Z,100.00
2023-01-27T06:10:56.398Z,100.00
2023-01-27T06:13:25.908Z,100.00
2023-01-27T06:15:56.182Z,100.00
2023-01-27T06:18:25.988Z,100.00
2023-01-27T06:20:59.925Z,100.00
2023-01-27T06:23:29.480Z,100.00
2023-01-27T06:26:02.238Z,100.00
2023-01-27T06:28:31.306Z,100.00
2023-01-27T06:31:07.739Z,100.00
2023-01-27T06:33:37.174Z,100.00
2023-01-27T06:36:10.579Z,100.00
2023-01-27T06:38:39.396Z,100.00
2023-01-27T06:41:08.664Z,100.00
2023-01-27T06:43:37.416Z,100.00
2023-01-27T06:46:06.531Z,100.00
2023-01-27T06:48:35.783Z,100.00
2023-01-27T06:51:04.862Z,100.00
2023-01-27T06:53:35.716Z,100.00
2023-01-27T06:56:04.208Z,100.00
2023-01-27T06:58:39.021Z,100.00
2023-01-27T07:01:08.163Z,100.00
2023-01-27T07:03:36.610Z,100.00
2023-01-27T07:06:06.016Z,100.00
2023-01-27T07:08:36.047Z,100.00
2023-01-27T07:11:05.974Z,100.00
2023-01-27T07:13:34.395Z,100.00
2023-01-27T07:16:02.859Z,100.00
2023-01-27T07:18:31.527Z,100.00
2023-01-27T07:21:00.937Z,100.00
2023-01-27T07:23:29.790Z,100.00
2023-01-27T07:26:04.320Z,100.00
2023-01-27T07:28:34.971Z,100.00
2023-01-27T07:31:04.660Z,100.00
2023-01-27T07:33:33.109Z,100.00
2023-01-27T07:36:01.686Z,100.00
2023-01-27T07:38:30.107Z,100.00
2023-01-27T07:40:59.905Z,100.00
2023-01-27T07:43:28.162Z,100.00
2023-01-27T07:45:57.623Z,100.00
2023-01-27T07:48:26.165Z,100.00
2023-01-27T07:50:55.149Z,100.00
2023-01-27T07:53:30.579Z,100.00
2023-01-27T07:56:04.699Z,100.00
2023-01-27T07:58:36.750Z,100.00
2023-01-27T08:01:09.050Z,100.00
2023-01-27T08:03:39.440Z,100.00
2023-01-27T08:06:12.875Z,100.00
2023-01-27T08:08:43.439Z,100.00
2023-01-27T08:11:20.159Z,100.00
2023-01-27T08:13:49.973Z,100.00
2023-01-27T08:16:22.898Z,100.00
2023-01-27T08:18:53.916Z,100.00
2023-01-27T08:21:25.547Z,100.00
2023-01-27T08:23:56.054Z,100.00
2023-01-27T08:26:27.106Z,100.00
2023-01-27T08:28:58.048Z,100.00
2023-01-27T08:31:29.683Z,100.00
2023-01-27T08:33:59.586Z,100.00
2023-01-27T08:36:30.030Z,100.00
2023-01-27T08:39:01.169Z,100.00
2023-01-27T08:41:34.060Z,100.00
2023-01-27T08:44:04.388Z,100.00
2023-01-27T08:46:33.558Z,100.00
2023-01-27T08:49:04.220Z,100.00
2023-01-27T08:51:37.682Z,100.00
2023-01-27T08:54:10.683Z,100.00
2023-01-27T08:56:42.053Z,100.00
2023-01-27T08:59:11.319Z,100.00
2023-01-27T09:01:43.897Z,100.00
2023-01-27T09:04:12.820Z,100.00
2023-01-27T09:06:42.415Z,100.00
2023-01-27T09:09:12.387Z,100.00
2023-01-27T09:11:47.855Z,100.00
2023-01-27T09:14:19.414Z,100.00
2023-01-27T09:16:48.746Z,100.00
2023-01-27T09:19:19.861Z,100.00
2023-01-27T09:21:49.548Z,100.00
2023-01-27T09:24:19.529Z,100.00
2023-01-27T09:26:50.452Z,100.00
2023-01-27T09:29:21.170Z,100.00
2023-01-27T09:31:50.004Z,100.00
2023-01-27T09:34:19.899Z,100.00
2023-01-27T09:36:56.039Z,100.00
2023-01-27T09:39:25.866Z,100.00
2023-01-27T09:42:29.061Z,100.00
2023-01-27T09:45:25.591Z,100.00
2023-01-27T09:48:18.966Z,100.00
2023-01-27T09:50:56.429Z,100.00
2023-01-27T09:54:12.691Z,100.00
2023-01-27T09:56:54.865Z,100.00
2023-01-27T09:59:55.188Z,100.00
2023-01-27T10:03:01.158Z,100.00
2023-01-27T10:06:05.515Z,100.00
2023-01-27T10:09:07.720Z,100.00
2023-01-27T10:11:52.709Z,100.00
2023-01-27T10:14:41.180Z,100.00
2023-01-27T10:17:32.384Z,100.00
2023-01-27T10:20:30.731Z,100.00
2023-01-27T10:23:18.567Z,100.00
2023-01-27T10:26:03.072Z,100.00
2023-01-27T10:28:35.840Z,100.00
2023-01-27T10:31:14.789Z,100.00
2023-01-27T10:33:53.611Z,100.00
2023-01-27T10:36:30.028Z,100.00
2023-01-27T10:39:18.287Z,100.00
2023-01-27T10:42:00.653Z,100.00
2023-01-27T10:44:59.911Z,100.00
2023-01-27T10:47:52.635Z,99.54
2023-01-27T10:50:28.650Z,99.47
2023-01-27T10:53:06.516Z,98.17
2023-01-27T10:55:44.102Z,97.63
2023-01-27T10:58:21.963Z,97.00
2023-01-27T11:01:19.931Z,95.08
2023-01-27T11:03:57.565Z,94.67
2023-01-27T11:06:35.312Z,94.07
2023-01-27T11:09:17.166Z,92.84
2023-01-27T11:11:47.412Z,91.94
2023-01-27T11:14:27.562Z,90.92
2023-01-27T11:17:04.998Z,90.56
2023-01-27T11:19:46.877Z,91.14
2023-01-27T11:22:26.272Z,90.66
2023-01-27T11:25:07.133Z,90.62
2023-01-27T11:27:59.168Z,90.67
2023-01-27T11:30:38.473Z,89.02
2023-01-27T11:33:19.957Z,88.95
2023-01-27T11:35:56.257Z,89.27
2023-01-27T11:38:26.008Z,89.55
2023-01-27T11:40:56.339Z,88.11
2023-01-27T11:43:29.571Z,87.13
2023-01-27T11:46:05.316Z,85.83
2023-01-27T11:48:43.829Z,83.06
2023-01-27T11:51:21.598Z,81.33
2023-01-27T11:54:03.499Z,80.14
2023-01-27T11:56:34.637Z,80.00
2023-01-27T11:59:09.665Z,80.49
2023-01-27T12:01:48.345Z,79.34
2023-01-27T12:04:26.043Z,78.98
2023-01-27T12:07:04.274Z,80.09
2023-01-27T12:09:36.447Z,81.39
2023-01-27T12:12:21.932Z,82.96
2023-01-27T12:14:54.226Z,83.35
2023-01-27T12:17:33.459Z,83.84
2023-01-27T12:20:08.403Z,83.72
2023-01-27T12:22:41.540Z,83.67
2023-01-27T12:25:29.115Z,83.17
2023-01-27T12:28:02.544Z,83.13
2023-01-27T12:30:36.186Z,83.28
2023-01-27T12:33:22.168Z,83.04
2023-01-27T12:35:52.187Z,83.46
2023-01-27T12:38:26.143Z,82.62
2023-01-27T12:41:02.318Z,81.91
2023-01-27T12:43:30.716Z,81.53
2023-01-27T12:46:19.249Z,80.67
2023-01-27T12:48:51.461Z,80.81
2023-01-27T12:51:23.404Z,80.69
2023-01-27T12:54:21.934Z,81.56
2023-01-27T12:56:52.243Z,81.64
2023-01-27T12:59:24.201Z,82.83
2023-01-27T13:02:16.838Z,83.42
2023-01-27T13:04:52.775Z,83.90
2023-01-27T13:07:27.060Z,84.58
2023-01-27T13:10:03.305Z,84.81
2023-01-27T13:12:51.890Z,85.11
2023-01-27T13:15:23.009Z,85.00
2023-01-27T13:17:53.648Z,84.26
2023-01-27T13:20:27.275Z,83.34
2023-01-27T13:23:03.129Z,82.98
2023-01-27T13:25:40.742Z,81.91
2023-01-27T13:28:16.593Z,81.66
2023-01-27T13:30:52.615Z,81.64
2023-01-27T13:33:35.599Z,80.88
2023-01-27T13:36:13.546Z,80.83
2023-01-27T13:38:53.762Z,79.78
2023-01-27T13:41:37.244Z,78.93
2023-01-27T13:44:18.655Z,78.94
2023-01-27T13:46:50.805Z,78.30
2023-01-27T13:49:37.503Z,77.50
2023-01-27T13:52:08.535Z,77.97
2023-01-27T13:54:36.953Z,77.81
2023-01-27T13:57:49.010Z,77.02
2023-01-27T14:00:27.501Z,76.67
2023-01-27T14:04:02.153Z,77.74
2023-01-27T14:06:51.196Z,78.17
2023-01-27T14:09:41.618Z,77.84
2023-01-27T14:12:32.335Z,78.47
2023-01-27T14:15:11.668Z,78.86
2023-01-27T14:17:49.293Z,79.12
2023-01-27T14:20:51.440Z,79.70
2023-01-27T14:23:41.448Z,80.78
2023-01-27T14:26:45.594Z,81.15
2023-01-27T14:29:32.832Z,82.06
2023-01-27T14:32:17.516Z,82.74
2023-01-27T14:35:18.048Z,83.30
2023-01-27T14:38:03.798Z,83.37
2023-01-27T14:40:39.667Z,83.74
2023-01-27T14:43:25.799Z,84.67
2023-01-27T14:46:11.985Z,85.46
2023-01-27T14:48:54.645Z,85.32
2023-01-27T14:51:36.154Z,86.27
2023-01-27T14:54:28.761Z,86.35
2023-01-27T14:57:27.041Z,86.10
2023-01-27T15:00:14.874Z,85.90
2023-01-27T15:02:53.318Z,85.59
2023-01-27T15:05:29.458Z,85.39
2023-01-27T15:08:10.579Z,84.98
2023-01-27T15:10:51.267Z,85.01
2023-01-27T15:13:57.373Z,85.21
2023-01-27T15:17:06.383Z,85.57
2023-01-27T15:20:12.613Z,85.63
2023-01-27T15:22:59.448Z,85.97
2023-01-27T15:25:36.048Z,86.02
2023-01-27T15:28:06.032Z,86.58
2023-01-27T15:30:38.559Z,86.84
2023-01-27T15:33:47.405Z,87.52
2023-01-27T15:36:32.249Z,88.13
2023-01-27T15:39:21.812Z,87.96
2023-01-27T15:42:12.587Z,88.45
2023-01-27T15:45:01.540Z,88.33
2023-01-27T15:47:35.291Z,88.31
2023-01-27T15:50:18.582Z,89.13
2023-01-27T15:52:51.234Z,90.34
2023-01-27T15:55:30.282Z,91.47
2023-01-27T15:58:29.824Z,91.68
2023-01-27T16:01:02.788Z,92.69
2023-01-27T16:03:35.343Z,92.97
2023-01-27T16:06:09.875Z,93.19
2023-01-27T16:08:49.202Z,94.25
2023-01-27T16:11:39.801Z,94.30
2023-01-27T16:14:39.380Z,94.12
2023-01-27T16:17:26.986Z,95.07
2023-01-27T16:20:13.662Z,95.43
2023-01-27T16:22:45.470Z,95.62
2023-01-27T16:25:29.520Z,95.88
2023-01-27T16:28:08.257Z,95.49
2023-01-27T16:30:48.193Z,95.87
2023-01-27T16:33:27.895Z,96.53
2023-01-27T16:36:06.286Z,96.17
2023-01-27T16:38:39.338Z,97.04
2023-01-27T16:41:22.539Z,97.59
2023-01-27T16:43:54.936Z,98.46
2023-01-27T16:46:34.222Z,98.77
2023-01-27T16:49:05.792Z,98.70
2023-01-27T16:51:35.220Z,99.42
2023-01-27T16:54:19.620Z,100.00
2023-01-27T16:56:52.759Z,100.00
2023-01-27T16:59:27.611Z,100.00
2023-01-27T17:02:02.948Z,100.00
2023-01-27T17:04:33.371Z,100.00
2023-01-27T17:07:09.899Z,100.00
2023-01-27T17:09:43.834Z,100.00
2023-01-27T17:12:31.407Z,100.00
2023-01-27T17:15:01.784Z,100.00
2023-01-27T17:17:36.311Z,100.00
2023-01-27T17:20:08.852Z,100.00
2023-01-27T17:22:42.129Z,100.00
2023-01-27T17:25:17.987Z,100.00
2023-01-27T17:27:51.712Z,100.00
2023-01-27T17:30:28.319Z,100.00
2023-01-27T17:33:00.007Z,100.00
2023-01-27T17:35:33.126Z,100.00
2023-01-27T17:38:15.484Z,100.00
2023-01-27T17:40:46.992Z,100.00
2023-01-27T17:43:32.023Z,100.00
2023-01-27T17:46:20.630Z,100.00
2023-01-27T17:48:56.069Z,100.00
2023-01-27T17:51:28.248Z,100.00
2023-01-27T17:53:59.552Z,100.00
2023-01-27T17:56:33.080Z,100.00
2023-01-27T17:59:09.279Z,100.00
2023-01-27T18:01:38.525Z,100.00
2023-01-27T18:04:08.666Z,100.00
2023-01-27T18:06:38.597Z,100.00
2023-01-27T18:09:20.351Z,100.00
2023-01-27T18:12:02.600Z,100.00
2023-01-27T18:14:36.597Z,100.00
2023-01-27T18:17:07.859Z,100.00
2023-01-27T18:19:36.235Z,100.00
2023-01-27T18:22:14.052Z,100.00
2023-01-27T18:24:51.727Z,100.00
2023-01-27T18:27:30.234Z,100.00
2023-01-27T18:30:13.128Z,100.00
2023-01-27T18:32:44.682Z,100.00
2023-01-27T18:35:29.686Z,100.00
2023-01-27T18:38:01.735Z,100.00
2023-01-27T18:40:34.788Z,100.00
2023-01-27T18:43:06.212Z,100.00
2023-01-27T18:45:35.932Z,100.00
2023-01-27T18:48:10.426Z,100.00
2023-01-27T18:50:45.486Z,100.00
2023-01-27T18:53:19.363Z,100.00
2023-01-27T18:55:48.195Z,100.00
2023-01-27T18:58:17.984Z,100.00
2023-01-27T19:00:51.741Z,100.00
2023-01-27T19:03:24.315Z,100.00
2023-01-27T19:05:52.786Z,100.00
2023-01-27T19:08:24.300Z,100.00
2023-01-27T19:10:53.696Z,100.00
2023-01-27T19:13:22.077Z,100.00
2023-01-27T19:15:55.695Z,100.00
2023-01-27T19:18:29.388Z,100.00
2023-01-27T19:20:59.546Z,100.00
2023-01-27T19:23:29.239Z,100.00
2023-01-27T19:26:04.896Z,100.00
2023-01-27T19:28:36.955Z,100.00
2023-01-27T19:31:08.077Z,100.00
2023-01-27T19:33:38.647Z,100.00
2023-01-27T19:36:22.517Z,100.00
2023-01-27T19:38:57.178Z,100.00
2023-01-27T19:41:25.868Z,100.00
2023-01-27T19:43:54.604Z,100.00
2023-01-27T19:46:24.814Z,100.00
2023-01-27T19:48:54.920Z,100.00
2023-01-27T19:51:24.206Z,100.00
2023-01-27T19:53:52.564Z,100.00
2023-01-27T19:56:24.708Z,100.00
2023-01-27T19:58:54.920Z,100.00
2023-01-27T20:01:29.021Z,100.00
2023-01-27T20:04:00.369Z,100.00
2023-01-27T20:06:32.584Z,100.00
2023-01-27T20:09:04.200Z,100.00
2023-01-27T20:11:39.282Z,100.00
2023-01-27T20:14:13.705Z,100.00
2023-01-27T20:16:44.341Z,100.00
2023-01-27T20:19:16.003Z,100.00
2023-01-27T20:21:46.153Z,100.00
2023-01-27T20:24:17.571Z,100.00
2023-01-27T20:26:47.139Z,100.00
2023-01-27T20:29:15.950Z,100.00
2023-01-27T20:31:46.851Z,100.00
2023-01-27T20:34:15.232Z,100.00
2023-01-27T20:36:43.601Z,100.00
2023-01-27T20:39:12.556Z,100.00
2023-01-27T20:41:41.016Z,100.00
2023-01-27T20:44:13.577Z,100.00
2023-01-27T20:46:42.246Z,100.00
2023-01-27T20:49:11.991Z,100.00
2023-01-27T20:51:40.441Z,100.00
2023-01-27T20:54:09.269Z,100.00
2023-01-27T20:56:37.747Z,100.00
2023-01-27T20:59:06.450Z,100.00
2023-01-27T21:01:35.321Z,100.00
2023-01-27T21:04:03.702Z,100.00
2023-01-27T21:06:33.595Z,100.00
2023-01-27T21:09:02.019Z,100.00
2023-01-27T21:11:30.927Z,100.00
2023-01-27T21:14:00.288Z,100.00
2023-01-27T21:16:33.033Z,100.00
2023-01-27T21:19:02.619Z,100.00
2023-01-27T21:21:33.747Z,100.00
2023-01-27T21:24:02.599Z,100.00
2023-01-27T21:26:32.751Z,100.00
2023-01-27T21:29:01.333Z,100.00
2023-01-27T21:31:30.652Z,100.00
2023-01-27T21:34:01.896Z,100.00
2023-01-27T21:36:30.984Z,100.00
2023-01-27T21:39:02.609Z,100.00
2023-01-27T21:41:48.929Z,100.00
2023-01-27T21:44:37.672Z,100.00
2023-01-27T21:47:08.048Z,100.00
2023-01-27T21:49:59.421Z,100.00
2023-01-27T21:52:33.211Z,100.00
2023-01-27T21:55:05.138Z,100.00
2023-01-27T21:57:34.179Z,100.00
2023-01-27T22:00:02.580Z,100.00
2023-01-27T22:02:31.266Z,100.00
2023-01-27T22:05:00.059Z,100.00
2023-01-27T22:07:34.927Z,100.00
2023-01-27T22:10:05.975Z,100.00
2023-01-27T22:12:34.733Z,100.00
2023-01-27T22:15:03.241Z,100.00
2023-01-27T22:17:31.567Z,100.00
2023-01-27T22:19:59.988Z,100.00
2023-01-27T22:22:29.687Z,100.00
2023-01-27T22:25:01.173Z,100.00
2023-01-27T22:27:30.940Z,100.00
2023-01-27T22:30:00.247Z,100.00
2023-01-27T22:32:29.285Z,100.00
2023-01-27T22:35:04.464Z,100.00
2023-01-27T22:37:34.295Z,100.00
2023-01-27T22:40:02.832Z,100.00
2023-01-27T22:42:32.924Z,100.00
2023-01-27T22:45:01.380Z,100.00
2023-01-27T22:47:29.662Z,100.00
2023-01-27T22:50:01.094Z,100.00
2023-01-27T22:52:29.454Z,100.00
2023-01-27T22:55:00.012Z,100.00
2023-01-27T22:57:31.775Z,100.00
2023-01-27T23:00:00.757Z,100.00
2023-01-27T23:02:29.947Z,100.00
2023-01-27T23:04:59.768Z,100.00
2023-01-27T23:07:31.003Z,100.00
2023-01-27T23:10:00.716Z,100.00
2023-01-27T23:12:30.827Z,100.00
2023-01-27T23:15:03.612Z,100.00
2023-01-27T23:17:31.944Z,100.00
2023-01-27T23:20:00.483Z,100.00
2023-01-27T23:22:29.276Z,100.00
2023-01-27T23:25:00.409Z,100.00
2023-01-27T23:27:29.543Z,100.00
2023-01-27T23:30:01.169Z,100.00
2023-01-27T23:32:29.950Z,100.00
2023-01-27T23:34:59.039Z,100.00
2023-01-27T23:37:27.573Z,100.00
2023-01-27T23:39:56.722Z,100.00
2023-01-27T23:42:29.978Z,100.00
2023-01-27T23:45:00.631Z,100.00
2023-01-27T23:47:30.605Z,100.00
2023-01-27T23:50:00.298Z,100.00
2023-01-27T23:52:30.499Z,100.00
2023-01-27T23:54:59.717Z,100.00
2023-01-27T23:57:29.236Z,100.00
